createdAt,value
2018-06-22T00:00:35.803Z,55.35
2018-06-22T00:01:35.555Z,55.45
2018-06-22T00:02:35.563Z,55.35
2018-06-22T00:03:35.811Z,55.35
2018-06-22T00:04:35.817Z,55.83
2018-06-22T00:05:35.803Z,55.83
2018-06-22T00:06:35.801Z,56.21
2018-06-22T00:07:35.807Z,56.21
2018-06-22T00:08:35.800Z,56.6
2018-06-22T00:09:35.795Z,56.79
2018-06-22T00:10:35.798Z,56.5
2018-06-22T00:11:35.790Z,56.6
2018-06-22T00:12:35.794Z,56.69
2018-06-22T00:13:35.536Z,56.5
2018-06-22T00:14:35.785Z,56.79
2018-06-22T00:15:35.786Z,56.57
2018-06-22T00:16:35.532Z,57.04
2018-06-22T00:17:35.534Z,57.14
2018-06-22T00:18:35.789Z,57.62
2018-06-22T00:19:35.543Z,57.71
2018-06-22T00:20:35.810Z,57.71
2018-06-22T00:21:35.790Z,57.71
2018-06-22T00:22:35.517Z,58
2018-06-22T00:23:35.772Z,57.71
2018-06-22T00:24:35.792Z,58.29
2018-06-22T00:25:35.773Z,58.1
2018-06-22T00:26:35.761Z,58.95
2018-06-22T00:27:35.757Z,58.58
2018-06-22T00:28:35.763Z,58.86
2018-06-22T00:29:35.759Z,59.05
2018-06-22T00:30:35.502Z,59.63
2018-06-22T00:31:35.759Z,59.44
2018-06-22T00:32:35.762Z,59.24
2018-06-22T00:33:35.763Z,58.86
2018-06-22T00:34:35.767Z,59.05
2018-06-22T00:35:35.508Z,59.34
2018-06-22T00:36:35.749Z,59.24
2018-06-22T00:37:35.486Z,59.72
2018-06-22T00:38:35.484Z,60.49
2018-06-22T00:39:35.731Z,60.2
2018-06-22T00:40:35.740Z,59.63
2018-06-22T00:41:35.742Z,59.63
2018-06-22T00:42:35.732Z,59.63
2018-06-22T00:43:35.737Z,60.2
2018-06-22T00:44:35.752Z,59.53
2018-06-22T00:45:35.744Z,59.63
2018-06-22T00:46:35.468Z,60.01
2018-06-22T00:47:35.724Z,59.53
2018-06-22T00:48:35.465Z,60.2
2018-06-22T00:49:35.717Z,59.81
2018-06-22T00:50:35.462Z,60.3
2018-06-22T00:51:35.717Z,60.27
2018-06-22T00:52:35.716Z,60.68
2018-06-22T00:53:35.707Z,60.55
2018-06-22T00:54:35.707Z,60.39
2018-06-22T00:55:35.702Z,60.58
2018-06-22T00:56:35.707Z,60.58
2018-06-22T00:57:35.446Z,60.58
2018-06-22T00:58:35.455Z,60.58
2018-06-22T00:59:35.701Z,60.64
2018-06-22T01:00:35.443Z,60.58
2018-06-22T01:01:35.692Z,60.3
2018-06-22T01:02:35.687Z,61.03
2018-06-22T01:03:35.692Z,61.03
2018-06-22T01:04:35.685Z,61.13
2018-06-22T01:05:36.503Z,61.22
2018-06-22T01:06:35.691Z,61.6
2018-06-22T01:07:35.686Z,61.79
2018-06-22T01:08:35.433Z,61.51
2018-06-22T01:09:35.425Z,62.27
2018-06-22T01:10:35.420Z,62.46
2018-06-22T01:11:35.681Z,62.18
2018-06-22T01:12:35.685Z,62.27
2018-06-22T01:13:35.673Z,62.65
2018-06-22T01:14:35.416Z,62.84
2018-06-22T01:15:35.664Z,62.75
2018-06-22T01:16:35.662Z,62.65
2018-06-22T01:17:35.405Z,62.65
2018-06-22T01:18:35.651Z,62.65
2018-06-22T01:19:35.399Z,62.65
2018-06-22T01:20:35.652Z,62.94
2018-06-22T01:21:35.656Z,63.32
2018-06-22T01:22:35.651Z,63.32
2018-06-22T01:23:35.662Z,63.32
2018-06-22T01:24:35.401Z,63.51
2018-06-22T01:25:35.387Z,63.42
2018-06-22T01:26:35.640Z,63.42
2018-06-22T01:27:35.381Z,63.8
2018-06-22T01:28:35.394Z,63.99
2018-06-22T01:29:35.645Z,63.6
2018-06-22T01:30:35.410Z,63.6
2018-06-22T01:31:35.375Z,63.7
2018-06-22T01:32:35.371Z,63.99
2018-06-22T01:33:35.622Z,63.7
2018-06-22T01:34:35.370Z,63.7
2018-06-22T01:35:35.363Z,63.89
2018-06-22T01:36:35.613Z,63.51
2018-06-22T01:37:35.615Z,63.6
2018-06-22T01:38:35.352Z,63.99
2018-06-22T01:39:35.360Z,64.56
2018-06-22T01:40:35.617Z,64.28
2018-06-22T01:41:35.617Z,63.7
2018-06-22T01:42:35.612Z,64.18
2018-06-22T01:43:35.362Z,64.85
2018-06-22T01:44:35.599Z,64.47
2018-06-22T01:45:35.614Z,64.09
2018-06-22T01:46:35.356Z,64.28
2018-06-22T01:47:35.617Z,64.28
2018-06-22T01:48:35.333Z,64.81
2018-06-22T01:49:35.343Z,64.81
2018-06-22T01:50:35.588Z,64.91
2018-06-22T01:51:35.590Z,64.81
2018-06-22T01:52:35.575Z,65.48
2018-06-22T01:53:35.321Z,65.3
2018-06-22T01:54:35.570Z,65.67
2018-06-22T01:55:35.572Z,65.48
2018-06-22T01:56:35.315Z,65.58
2018-06-22T01:57:35.311Z,66.06
2018-06-22T01:58:35.311Z,65.77
2018-06-22T01:59:35.561Z,65.77
2018-06-22T02:00:35.364Z,65.67
2018-06-22T02:01:35.619Z,65.77
2018-06-22T02:02:35.555Z,65.96
2018-06-22T02:03:35.298Z,65.96
2018-06-22T02:04:35.306Z,66.15
2018-06-22T02:05:35.547Z,66.15
2018-06-22T02:06:35.291Z,66.15
2018-06-22T02:07:35.540Z,66.06
2018-06-22T02:08:35.535Z,66.15
2018-06-22T02:09:35.283Z,66.5
2018-06-22T02:10:35.543Z,67.01
2018-06-22T02:11:35.543Z,66.78
2018-06-22T02:12:35.525Z,66.69
2018-06-22T02:13:35.522Z,66.92
2018-06-22T02:14:35.527Z,67.49
2018-06-22T02:15:35.291Z,67.46
2018-06-22T02:16:35.278Z,67.36
2018-06-22T02:17:35.517Z,67.46
2018-06-22T02:18:35.515Z,67.27
2018-06-22T02:19:35.514Z,67.58
2018-06-22T02:20:35.577Z,67.77
2018-06-22T02:21:35.276Z,68.32
2018-06-22T02:22:35.256Z,67.93
2018-06-22T02:23:35.505Z,67.83
2018-06-22T02:24:35.512Z,67.65
2018-06-22T02:25:35.503Z,67.83
2018-06-22T02:26:35.249Z,68.12
2018-06-22T02:27:35.497Z,68.32
2018-06-22T02:28:35.484Z,68.32
2018-06-22T02:29:35.489Z,68.22
2018-06-22T02:30:35.483Z,68.22
2018-06-22T02:31:35.491Z,68.51
2018-06-22T02:32:35.541Z,68.79
2018-06-22T02:33:35.479Z,68.12
2018-06-22T02:34:35.469Z,68.32
2018-06-22T02:35:35.217Z,68.41
2018-06-22T02:36:35.231Z,68.88
2018-06-22T02:37:35.221Z,68.79
2018-06-22T02:38:35.465Z,69.08
2018-06-22T02:39:35.482Z,68.98
2018-06-22T02:40:35.209Z,69.08
2018-06-22T02:41:35.462Z,68.88
2018-06-22T02:42:35.459Z,69.65
2018-06-22T02:43:35.199Z,69.65
2018-06-22T02:44:35.203Z,69.65
2018-06-22T02:45:35.193Z,69.93
2018-06-22T02:46:35.195Z,69.65
2018-06-22T02:47:35.188Z,69.46
2018-06-22T02:48:35.448Z,69.46
2018-06-22T02:49:35.183Z,69.46
2018-06-22T02:50:35.475Z,69.37
2018-06-22T02:51:35.432Z,69.56
2018-06-22T02:52:35.431Z,69.56
2018-06-22T02:53:35.292Z,69.65
2018-06-22T02:54:35.164Z,69.93
2018-06-22T02:55:35.169Z,69.93
2018-06-22T02:56:35.422Z,70.13
2018-06-22T02:57:35.159Z,70.22
2018-06-22T02:58:35.417Z,70.51
2018-06-22T02:59:35.409Z,69.56
2018-06-22T03:00:35.406Z,70.13
2018-06-22T03:01:35.161Z,70.32
2018-06-22T03:02:35.397Z,70.22
2018-06-22T03:03:35.400Z,70.42
2018-06-22T03:04:35.139Z,70.42
2018-06-22T03:05:35.386Z,70.42
2018-06-22T03:06:35.401Z,70.51
2018-06-22T03:07:35.403Z,70.51
2018-06-22T03:08:35.126Z,70.61
2018-06-22T03:09:35.396Z,70.42
2018-06-22T03:10:35.387Z,70.32
2018-06-22T03:11:35.376Z,70.79
2018-06-22T03:12:35.370Z,70.98
2018-06-22T03:13:35.368Z,70.51
2018-06-22T03:14:35.116Z,70.98
2018-06-22T03:15:35.373Z,70.98
2018-06-22T03:16:35.367Z,70.89
2018-06-22T03:17:35.370Z,71.18
2018-06-22T03:18:35.367Z,70.79
2018-06-22T03:19:35.356Z,71.37
2018-06-22T03:20:35.356Z,71.84
2018-06-22T03:21:35.346Z,72
2018-06-22T03:22:35.344Z,71.84
2018-06-22T03:23:35.089Z,71.84
2018-06-22T03:24:35.342Z,72.03
2018-06-22T03:25:35.341Z,72.51
2018-06-22T03:26:35.332Z,71.66
2018-06-22T03:27:35.329Z,72.32
2018-06-22T03:28:35.067Z,72.19
2018-06-22T03:29:35.323Z,72.19
2018-06-22T03:30:35.332Z,72.23
2018-06-22T03:31:35.318Z,72.67
2018-06-22T03:32:35.310Z,72.67
2018-06-22T03:33:35.319Z,72.32
2018-06-22T03:34:35.306Z,72.09
2018-06-22T03:35:35.308Z,72.57
2018-06-22T03:36:35.052Z,72.71
2018-06-22T03:37:35.300Z,72.71
2018-06-22T03:38:35.299Z,72.99
2018-06-22T03:39:35.477Z,72.32
2018-06-22T03:40:35.046Z,72.71
2018-06-22T03:41:35.285Z,72.71
2018-06-22T03:42:35.037Z,73.08
2018-06-22T03:43:35.285Z,72.96
2018-06-22T03:44:35.031Z,73.18
2018-06-22T03:45:35.274Z,72.32
2018-06-22T03:46:35.043Z,72.61
2018-06-22T03:47:35.015Z,73.18
2018-06-22T03:48:35.271Z,72.61
2018-06-22T03:49:35.265Z,72.99
2018-06-22T03:50:35.016Z,72.71
2018-06-22T03:51:35.013Z,72.61
2018-06-22T03:52:35.256Z,72.71
2018-06-22T03:53:35.265Z,72.13
2018-06-22T03:54:35.002Z,71.84
2018-06-22T03:55:35.292Z,71.08
2018-06-22T03:56:35.255Z,70.26
2018-06-22T03:57:35.239Z,69.59
2018-06-22T03:58:35.025Z,68.86
2018-06-22T03:59:35.242Z,68.1
2018-06-22T04:00:35.246Z,67.43
2018-06-22T04:01:35.258Z,66.41
2018-06-22T04:02:35.243Z,65.84
2018-06-22T04:03:34.975Z,65.74
2018-06-22T04:04:34.994Z,65.68
2018-06-22T04:05:35.228Z,65.3
2018-06-22T04:06:34.992Z,64.62
2018-06-22T04:07:35.220Z,64.05
2018-06-22T04:08:34.974Z,63.86
2018-06-22T04:09:34.971Z,64.25
2018-06-22T04:10:35.244Z,63.86
2018-06-22T04:11:35.255Z,63.48
2018-06-22T04:12:35.232Z,63.23
2018-06-22T04:13:34.972Z,62.37
2018-06-22T04:14:35.223Z,61.79
2018-06-22T04:15:35.231Z,60.86
2018-06-22T04:16:35.225Z,60.58
2018-06-22T04:17:35.223Z,61.05
2018-06-22T04:18:35.223Z,60.58
2018-06-22T04:19:34.970Z,60.58
2018-06-22T04:20:35.243Z,60.38
2018-06-22T04:21:35.221Z,59.91
2018-06-22T04:22:35.220Z,60.19
2018-06-22T04:23:35.231Z,60.19
2018-06-22T04:24:35.231Z,59.33
2018-06-22T04:25:34.976Z,59.43
2018-06-22T04:26:35.241Z,58.79
2018-06-22T04:27:35.224Z,58.88
2018-06-22T04:28:34.983Z,58.88
2018-06-22T04:29:35.235Z,58.4
2018-06-22T04:30:34.975Z,58.22
2018-06-22T04:31:35.235Z,57.38
2018-06-22T04:32:35.240Z,56.9
2018-06-22T04:33:35.246Z,56.07
2018-06-22T04:34:35.253Z,55.78
2018-06-22T04:35:34.983Z,55.58
2018-06-22T04:36:34.995Z,56.71
2018-06-22T04:37:35.249Z,56.61
2018-06-22T04:38:35.371Z,56.9
2018-06-22T04:39:35.251Z,56.81
2018-06-22T04:40:34.990Z,56.9
2018-06-22T04:41:35.260Z,57.38
2018-06-22T04:42:35.267Z,56.9
2018-06-22T04:43:35.259Z,56.23
2018-06-22T04:44:34.999Z,55.4
2018-06-22T04:45:35.275Z,54.72
2018-06-22T04:46:35.342Z,55.85
2018-06-22T04:47:35.371Z,56.32
2018-06-22T04:48:35.259Z,56.9
2018-06-22T04:49:35.263Z,56.42
2018-06-22T04:50:35.269Z,56.52
2018-06-22T04:51:35.280Z,56.99
2018-06-22T04:52:35.295Z,55.94
2018-06-22T04:53:35.286Z,56.52
2018-06-22T04:54:35.279Z,56.52
2018-06-22T04:55:35.025Z,56.42
2018-06-22T04:56:35.028Z,56.42
2018-06-22T04:57:35.286Z,55.97
2018-06-22T04:58:35.292Z,55.3
2018-06-22T04:59:35.288Z,55.68
2018-06-22T05:00:35.284Z,55.4
2018-06-22T05:01:35.303Z,55.01
2018-06-22T05:02:35.289Z,54.53
2018-06-22T05:03:35.383Z,54.82
2018-06-22T05:04:35.338Z,53.77
2018-06-22T05:05:35.298Z,53.5
2018-06-22T05:06:35.304Z,53.03
2018-06-22T05:07:35.305Z,51.9
2018-06-22T05:08:35.068Z,52.48
2018-06-22T05:09:35.321Z,51.51
2018-06-22T05:10:35.060Z,51.45
2018-06-22T05:11:35.323Z,51.35
2018-06-22T05:12:35.066Z,52
2018-06-22T05:13:35.323Z,51.14
2018-06-22T05:14:35.330Z,51.16
2018-06-22T05:15:35.123Z,51.71
2018-06-22T05:16:35.332Z,53.03
2018-06-22T05:17:35.335Z,53.99
2018-06-22T05:18:35.087Z,55.46
2018-06-22T05:19:35.089Z,56.71
2018-06-22T05:20:35.346Z,58.4
2018-06-22T05:21:35.347Z,58.86
2018-06-22T05:22:35.141Z,59.23
2018-06-22T05:23:35.097Z,59.72
2018-06-22T05:24:35.359Z,60.1
2018-06-22T05:25:35.359Z,60.58
2018-06-22T05:26:35.365Z,60.55
2018-06-22T05:27:35.358Z,60.55
2018-06-22T05:28:35.361Z,61.41
2018-06-22T05:29:35.377Z,61.31
2018-06-22T05:30:35.439Z,61.79
2018-06-22T05:31:35.373Z,62.24
2018-06-22T05:32:35.378Z,62.71
2018-06-22T05:33:35.115Z,63.19
2018-06-22T05:34:35.362Z,63.19
2018-06-22T05:35:35.366Z,63.19
2018-06-22T05:36:35.367Z,62.71
2018-06-22T05:37:35.384Z,63.19
2018-06-22T05:38:35.127Z,62.9
2018-06-22T05:39:35.118Z,63.96
2018-06-22T05:40:35.125Z,62.81
2018-06-22T05:41:35.678Z,62.24
2018-06-22T05:42:35.126Z,62.9
2018-06-22T05:43:35.370Z,62.87
2018-06-22T05:44:35.384Z,63.16
2018-06-22T05:45:35.376Z,64.02
2018-06-22T05:46:35.132Z,62.97
2018-06-22T05:47:35.383Z,61.57
2018-06-22T05:48:35.125Z,58.73
2018-06-22T05:49:35.383Z,57.42
2018-06-22T05:50:35.167Z,56.59
2018-06-22T05:51:35.124Z,54.03
2018-06-22T05:52:35.133Z,52.33
2018-06-22T05:53:35.124Z,51.78
2018-06-22T05:54:35.136Z,51.04
2018-06-22T05:55:35.128Z,51.14
2018-06-22T05:56:35.564Z,50.46
2018-06-22T05:57:35.388Z,49.82
2018-06-22T05:58:35.137Z,49.05
2018-06-22T05:59:35.397Z,48.02
2018-06-22T06:00:35.152Z,47.82
2018-06-22T06:01:35.418Z,47.15
2018-06-22T06:02:35.177Z,46.59
2018-06-22T06:03:35.507Z,46.12
2018-06-22T06:04:35.158Z,45.45
2018-06-22T06:05:35.156Z,44.51
2018-06-22T06:06:35.183Z,42.8
2018-06-22T06:07:35.424Z,42.72
2018-06-22T06:08:35.175Z,42.82
2018-06-22T06:09:35.176Z,42.24
2018-06-22T06:10:35.182Z,41.47
2018-06-22T06:11:35.429Z,41.56
2018-06-22T06:12:35.681Z,42.24
2018-06-22T06:22:58.912Z,41.18
2018-06-22T06:23:59.164Z,42.12
2018-06-22T06:24:59.168Z,43.08
2018-06-22T06:25:59.172Z,43.45
2018-06-22T06:26:59.162Z,44.38
2018-06-22T06:27:59.188Z,44.48
2018-06-22T06:28:59.179Z,45.04
2018-06-22T06:29:59.178Z,46.19
2018-06-22T06:30:58.930Z,45.42
2018-06-22T06:31:58.942Z,44.68
2018-06-22T06:32:59.193Z,44.58
2018-06-22T06:33:59.195Z,45.45
2018-06-22T06:34:58.956Z,46.09
2018-06-22T06:35:58.974Z,45.81
2018-06-22T06:36:59.228Z,46.09
2018-06-22T06:37:58.971Z,44.58
2018-06-22T06:38:59.212Z,44.77
2018-06-22T06:39:59.210Z,43.54
2018-06-22T06:40:58.966Z,42.12
2018-06-22T06:41:59.026Z,41.47
2018-06-22T06:42:59.222Z,39.74
2018-06-22T06:43:58.966Z,39.86
2018-06-22T06:44:58.977Z,40.53
2018-06-22T06:45:59.225Z,40.24
2018-06-22T06:46:59.231Z,39.11
2018-06-22T06:47:58.992Z,39.39
2018-06-22T06:48:59.012Z,38.83
2018-06-22T06:49:59.257Z,38.54
2018-06-22T06:50:59.270Z,38.45
2018-06-22T06:51:59.019Z,39.78
2018-06-22T06:52:59.015Z,40.72
2018-06-22T06:53:59.271Z,40.03
2018-06-22T06:54:59.273Z,39.76
2018-06-22T06:55:59.281Z,38.72
2018-06-22T06:56:59.282Z,37.19
2018-06-22T06:57:59.291Z,37.29
2018-06-22T06:58:59.288Z,36.91
2018-06-22T06:59:59.294Z,38.04
2018-06-22T07:00:59.050Z,38.24
2018-06-22T07:01:59.072Z,37.19
2018-06-22T07:02:59.313Z,36.61
2018-06-22T07:03:59.323Z,36.91
2018-06-22T07:04:59.332Z,36.33
2018-06-22T07:05:59.341Z,36.91
2018-06-22T07:06:59.331Z,36.04
2018-06-22T07:07:59.340Z,35.38
2018-06-22T07:08:59.085Z,34.63
2018-06-22T07:09:59.347Z,35.4
2018-06-22T07:10:59.114Z,35.88
2018-06-22T07:11:59.366Z,36.15
2018-06-22T07:12:59.108Z,36.91
2018-06-22T07:13:59.118Z,37.56
2018-06-22T07:14:59.379Z,39.64
2018-06-22T07:15:59.155Z,41.33
2018-06-22T07:16:59.385Z,42.83
2018-06-22T07:17:59.133Z,42.73
2018-06-22T07:18:59.139Z,42.18
2018-06-22T07:19:59.400Z,40.56
2018-06-22T07:20:59.153Z,38.68
2018-06-22T07:21:59.410Z,38.79
2018-06-22T07:22:59.416Z,38.31
2018-06-22T07:23:59.165Z,38.12
2018-06-22T07:24:59.420Z,37.18
2018-06-22T07:25:59.166Z,37.93
2018-06-22T07:26:59.175Z,39.83
2018-06-22T07:27:59.439Z,39.26
2018-06-22T07:28:59.446Z,39.93
2018-06-22T07:29:59.448Z,39.37
2018-06-22T07:30:59.198Z,39.28
2018-06-22T07:31:59.466Z,38.31
2018-06-22T07:32:59.471Z,37.27
2018-06-22T07:33:59.465Z,37.1
2018-06-22T07:34:59.473Z,38.14
2018-06-22T07:35:59.659Z,36.99
2018-06-22T07:36:59.469Z,37.66
2018-06-22T07:37:59.468Z,39.95
2018-06-22T07:38:59.480Z,40.78
2018-06-22T07:39:59.232Z,42.66
2018-06-22T07:40:59.489Z,43.52
2018-06-22T07:41:59.487Z,43.6
2018-06-22T07:42:59.245Z,44.15
2018-06-22T07:43:59.658Z,46.24
2018-06-22T07:44:59.498Z,46.53
2018-06-22T07:45:59.508Z,47.39
2018-06-22T07:46:59.500Z,48.13
2018-06-22T07:47:59.508Z,48.43
2018-06-22T07:48:59.525Z,48.33
2018-06-22T07:49:59.262Z,47.3
2018-06-22T07:50:59.521Z,46.91
2018-06-22T07:51:59.519Z,47.1
2018-06-22T07:52:59.523Z,47.08
2018-06-22T07:53:59.520Z,47.08
2018-06-22T07:54:59.528Z,48.02
2018-06-22T07:55:59.565Z,47.66
2018-06-22T07:56:59.532Z,46.24
2018-06-22T07:57:59.327Z,43.79
2018-06-22T07:58:59.541Z,41.33
2018-06-22T07:59:59.548Z,39.06
2018-06-22T08:00:59.546Z,39.81
2018-06-22T08:01:59.551Z,42.08
2018-06-22T08:02:59.549Z,44.44
2018-06-22T08:03:59.300Z,45.95
2018-06-22T08:04:59.297Z,46.14
2018-06-22T08:05:59.312Z,45.59
2018-06-22T08:06:59.307Z,44.15
2018-06-22T08:07:59.315Z,42.76
2018-06-22T08:08:59.311Z,41.16
2018-06-22T08:09:59.561Z,38.41
2018-06-22T08:10:59.570Z,37.29
2018-06-22T08:11:59.580Z,38.06
2018-06-22T08:12:59.594Z,38.35
2018-06-22T08:13:59.590Z,39.47
2018-06-22T08:14:59.587Z,40.99
2018-06-22T08:15:59.335Z,41.43
2018-06-22T08:16:59.690Z,42
2018-06-22T08:17:59.596Z,41.24
2018-06-22T08:18:59.598Z,40.95
2018-06-22T08:19:59.604Z,39.33
2018-06-22T08:20:59.606Z,38.2
2018-06-22T08:21:59.359Z,37.06
2018-06-22T08:22:59.615Z,36.51
2018-06-22T08:23:59.622Z,35.58
2018-06-22T08:24:59.362Z,34.44
2018-06-22T08:25:59.369Z,34.63
2018-06-22T08:26:59.625Z,35.11
2018-06-22T08:27:59.385Z,35.86
2018-06-22T08:28:59.645Z,35.11
2018-06-22T08:29:59.648Z,34.72
2018-06-22T08:30:59.646Z,35.78
2018-06-22T08:31:59.649Z,35.77
2018-06-22T08:32:59.401Z,36.35
2018-06-22T08:33:59.414Z,36.25
2018-06-22T08:34:59.793Z,36.15
2018-06-22T08:35:59.670Z,35.02
2018-06-22T08:36:59.421Z,35.3
2018-06-22T08:37:59.681Z,35.78
2018-06-22T08:38:59.426Z,35.21
2018-06-22T08:39:59.445Z,34.82
2018-06-22T08:40:59.687Z,34.72
2018-06-22T08:41:59.651Z,34.34
2018-06-22T08:42:59.706Z,34.55
2018-06-22T08:43:59.704Z,34.45
2018-06-22T08:44:59.710Z,33.48
2018-06-22T08:45:59.742Z,33.5
2018-06-22T08:46:59.717Z,33.78
2018-06-22T08:47:59.738Z,33.12
2018-06-22T08:48:59.860Z,33.31
2018-06-22T08:49:59.736Z,34.26
2018-06-22T08:50:59.751Z,35.86
2018-06-22T08:51:59.749Z,36.43
2018-06-22T08:52:59.499Z,36.25
2018-06-22T08:53:59.756Z,34.06
2018-06-22T08:54:59.761Z,32.64
2018-06-22T08:55:59.766Z,32.36
2018-06-22T08:56:59.522Z,32.36
2018-06-22T08:57:59.780Z,33.31
2018-06-22T08:58:59.783Z,34.45
2018-06-22T08:59:59.804Z,35.86
2018-06-22T09:00:59.801Z,36.91
2018-06-22T09:01:59.836Z,37.56
2018-06-22T09:02:59.806Z,38.87
2018-06-22T09:03:59.566Z,39.81
2018-06-22T09:04:59.828Z,40.68
2018-06-22T09:05:59.570Z,40.95
2018-06-22T09:06:59.817Z,41.02
2018-06-22T09:07:59.574Z,41.39
2018-06-22T09:08:59.583Z,42.73
2018-06-22T09:09:59.583Z,43.48
2018-06-22T09:10:59.829Z,44.54
2018-06-22T09:11:59.843Z,44.73
2018-06-22T09:12:59.589Z,44.44
2018-06-22T09:13:59.843Z,43.67
2018-06-22T09:14:59.851Z,42.61
2018-06-22T09:15:59.853Z,42.81
2018-06-22T09:16:59.605Z,43.36
2018-06-22T09:17:59.864Z,44.23
2018-06-22T09:18:59.602Z,43.84
2018-06-22T09:19:59.914Z,43.36
2018-06-22T09:20:59.877Z,43.19
2018-06-22T09:21:59.869Z,43.1
2018-06-22T09:22:59.612Z,43.19
2018-06-22T09:23:59.887Z,42.71
2018-06-22T09:24:59.624Z,42.23
2018-06-22T09:25:59.618Z,42.16
2018-06-22T09:26:59.894Z,42.61
2018-06-22T09:27:59.871Z,43.29
2018-06-22T09:28:59.626Z,43.57
2018-06-22T09:29:59.900Z,44.24
2018-06-22T09:30:59.638Z,44.63
2018-06-22T09:31:59.888Z,44.44
2018-06-22T09:32:59.888Z,44.44
2018-06-22T09:33:59.889Z,43.5
2018-06-22T09:34:59.892Z,43.88
2018-06-22T09:35:59.644Z,44.46
2018-06-22T09:36:59.899Z,44.54
2018-06-22T09:37:59.643Z,43.88
2018-06-22T09:38:59.908Z,42.64
2018-06-22T09:39:59.647Z,42.64
2018-06-22T09:40:59.906Z,42.27
2018-06-22T09:41:59.903Z,42.18
2018-06-22T09:43:00.181Z,42.76
2018-06-22T09:43:59.930Z,42.94
2018-06-22T09:44:59.698Z,42.56
2018-06-22T09:45:59.668Z,42.76
2018-06-22T09:46:59.664Z,43.21
2018-06-22T09:47:59.680Z,43.5
2018-06-22T09:48:59.927Z,43.88
2018-06-22T09:49:59.933Z,42.93
2018-06-22T09:50:59.938Z,42.18
2018-06-22T09:51:59.931Z,42.66
2018-06-22T09:52:59.721Z,42.94
2018-06-22T09:53:59.956Z,42.64
2018-06-22T09:54:59.959Z,42.93
2018-06-22T09:55:59.684Z,43.5
2018-06-22T09:56:59.936Z,45.11
2018-06-22T09:58:00.755Z,44.63
2018-06-22T09:58:59.946Z,43.96
2018-06-22T09:59:59.951Z,44.24
2018-06-22T10:00:59.693Z,44.63
2018-06-22T10:01:59.949Z,44.54
2018-06-22T10:02:59.947Z,44.44
2018-06-22T10:03:59.952Z,44.44
2018-06-22T10:04:59.691Z,45.5
2018-06-22T10:05:59.794Z,45.01
2018-06-22T10:06:59.959Z,43.6
2018-06-22T10:07:59.712Z,42.64
2018-06-22T10:08:59.707Z,42.25
2018-06-22T10:09:59.706Z,42.25
2018-06-22T10:10:59.962Z,43.6
2018-06-22T10:11:59.737Z,43.4
2018-06-22T10:13:00.047Z,43.21
2018-06-22T10:14:00.047Z,42.76
2018-06-22T10:14:59.711Z,41.31
2018-06-22T10:16:00.036Z,41.41
2018-06-22T10:16:59.971Z,41.43
2018-06-22T10:17:59.723Z,41.53
2018-06-22T10:18:59.990Z,41.33
2018-06-22T10:19:59.985Z,41.43
2018-06-22T10:20:59.742Z,42.2
2018-06-22T10:21:59.999Z,41.64
2018-06-22T10:53:19.859Z,41.99
2018-06-22T10:54:19.848Z,42.47
2018-06-22T10:55:19.851Z,42.3
2018-06-22T10:56:19.861Z,42.1
2018-06-22T10:57:19.619Z,42
2018-06-22T10:58:19.612Z,42.87
2018-06-22T10:59:19.861Z,42.94
2018-06-22T11:00:19.899Z,43.62
2018-06-22T11:01:19.855Z,43.91
2018-06-22T11:02:19.602Z,43.52
2018-06-22T11:03:19.872Z,42.68
2018-06-22T11:04:19.594Z,42.68
2018-06-22T11:05:19.614Z,42.87
2018-06-22T11:06:19.852Z,42.3
2018-06-22T11:07:19.605Z,41.74
2018-06-22T11:08:19.609Z,41.35
2018-06-22T11:09:19.872Z,41.28
2018-06-22T11:10:19.868Z,40.99
2018-06-22T11:11:19.615Z,40.8
2018-06-22T11:12:19.629Z,40.72
2018-06-22T11:13:19.619Z,40.24
2018-06-22T11:14:19.882Z,40.89
2018-06-22T11:15:19.621Z,41.08
2018-06-22T11:16:19.884Z,41.28
2018-06-22T11:17:19.754Z,41.55
2018-06-22T11:18:20.000Z,41.74
2018-06-22T11:19:19.888Z,42.68
2018-06-22T11:20:19.892Z,42.87
2018-06-22T11:21:19.780Z,43.64
2018-06-22T11:22:19.646Z,43.74
2018-06-22T11:23:19.898Z,42.87
2018-06-22T11:24:19.900Z,42.77
2018-06-22T11:25:19.898Z,43.43
2018-06-22T11:26:19.904Z,42.87
2018-06-22T11:27:19.724Z,42.68
2018-06-22T11:28:20.459Z,43.43
2018-06-22T11:29:19.662Z,43.43
2018-06-22T11:30:19.667Z,43.81
2018-06-22T11:31:19.934Z,44.48
2018-06-22T11:32:19.777Z,44.38
2018-06-22T11:33:19.671Z,44.1
2018-06-22T11:34:19.722Z,44.46
2018-06-22T11:35:19.933Z,44.65
2018-06-22T11:36:20.008Z,44.84
2018-06-22T11:37:19.669Z,44.56
2018-06-22T11:38:19.931Z,44.65
2018-06-22T11:39:19.683Z,44.65
2018-06-22T11:40:19.933Z,44.56
2018-06-22T11:41:20.047Z,43.71
2018-06-22T11:42:19.693Z,43.43
2018-06-22T11:43:20.056Z,42.87
2018-06-22T11:44:19.953Z,41.64
2018-06-22T11:45:19.693Z,41.64
2018-06-22T11:46:19.705Z,41.93
2018-06-22T11:47:19.965Z,42.5
2018-06-22T11:48:19.985Z,41.55
2018-06-22T11:49:19.965Z,40.89
2018-06-22T11:50:20.020Z,40.8
2018-06-22T11:51:19.717Z,40.99
2018-06-22T11:52:19.722Z,41.38
2018-06-22T11:53:19.971Z,41.55
2018-06-22T11:54:19.979Z,42.2
2018-06-22T11:55:19.971Z,43.45
2018-06-22T11:56:19.737Z,43.62
2018-06-22T11:57:19.725Z,44.29
2018-06-22T11:58:19.725Z,44.48
2018-06-22T11:59:19.734Z,44.38
2018-06-22T12:00:19.996Z,45.14
2018-06-22T12:01:19.735Z,44.37
2018-06-22T12:02:19.991Z,44.56
2018-06-22T12:03:19.741Z,43.79
2018-06-22T12:04:19.744Z,44.29
2018-06-22T12:05:19.754Z,44.38
2018-06-22T12:06:20.009Z,44.48
2018-06-22T12:07:19.751Z,44.77
2018-06-22T12:08:20.052Z,44.58
2018-06-22T12:09:20.003Z,44.38
2018-06-22T12:10:20.025Z,44.38
2018-06-22T12:11:20.074Z,44.68
2018-06-22T12:12:20.007Z,44.87
2018-06-22T12:13:20.024Z,44.58
2018-06-22T12:14:20.031Z,44.68
2018-06-22T12:15:20.017Z,44.29
2018-06-22T12:16:20.024Z,44.87
2018-06-22T12:17:19.765Z,44.48
2018-06-22T12:18:19.774Z,43.33
2018-06-22T12:19:20.233Z,44.58
2018-06-22T12:20:19.785Z,44.68
2018-06-22T12:21:20.035Z,44.65
2018-06-22T12:22:19.779Z,45.23
2018-06-22T12:23:20.037Z,45.42
2018-06-22T12:24:19.785Z,45.23
2018-06-22T12:25:20.063Z,45.42
2018-06-22T12:26:19.811Z,46.09
2018-06-22T12:27:20.044Z,46.09
2018-06-22T12:28:20.069Z,46
2018-06-22T12:29:19.790Z,45.32
2018-06-22T12:30:19.826Z,45.14
2018-06-22T12:31:20.054Z,45.14
2018-06-22T12:32:19.806Z,45.23
2018-06-22T12:33:19.807Z,45.61
2018-06-22T12:34:19.803Z,45.14
2018-06-22T12:35:21.868Z,45.25
2018-06-22T12:36:20.058Z,45.25
2018-06-22T12:37:20.056Z,45.15
2018-06-22T12:38:20.065Z,44.41
2018-06-22T12:39:19.843Z,43.64
2018-06-22T12:40:20.064Z,43.93
2018-06-22T12:41:20.075Z,43.35
2018-06-22T12:42:20.081Z,42.77
2018-06-22T12:43:20.069Z,42.87
2018-06-22T12:44:20.080Z,43.54
2018-06-22T12:45:20.067Z,43.91
2018-06-22T12:46:19.820Z,44.68
2018-06-22T12:47:20.072Z,45.04
2018-06-22T12:48:20.088Z,45.04
2018-06-22T12:49:20.075Z,45.06
2018-06-22T12:50:19.833Z,45.04
2018-06-22T12:51:20.082Z,45.42
2018-06-22T12:52:20.083Z,45.32
2018-06-22T12:53:20.088Z,45.32
2018-06-22T12:54:19.851Z,46.28
2018-06-22T12:55:20.092Z,45.9
2018-06-22T12:56:20.093Z,45.52
2018-06-22T12:57:20.095Z,46.07
2018-06-22T12:58:20.089Z,45.42
2018-06-22T12:59:20.094Z,46.19
2018-06-22T13:00:19.851Z,45.61
2018-06-22T13:01:19.850Z,45.71
2018-06-22T13:02:19.850Z,45.9
2018-06-22T13:03:20.108Z,45.25
2018-06-22T13:04:19.864Z,45.06
2018-06-22T13:05:19.858Z,44.38
2018-06-22T13:06:20.116Z,45.06
2018-06-22T13:07:20.112Z,44.87
2018-06-22T13:08:20.154Z,44.87
2018-06-22T13:09:20.248Z,44.48
2018-06-22T13:10:20.113Z,45.35
2018-06-22T13:11:19.869Z,46.09
2018-06-22T13:12:19.870Z,45.9
2018-06-22T13:13:19.868Z,46.09
2018-06-22T13:14:19.894Z,45.45
2018-06-22T13:15:19.871Z,46.02
2018-06-22T13:16:20.147Z,46.12
2018-06-22T13:17:19.884Z,45.92
2018-06-22T13:18:20.132Z,45.92
2018-06-22T13:19:19.879Z,46.48
2018-06-22T13:20:20.130Z,47.15
2018-06-22T13:21:19.887Z,46.67
2018-06-22T13:22:19.887Z,46.96
2018-06-22T13:23:20.140Z,47.05
2018-06-22T13:24:20.141Z,46.48
2018-06-22T13:25:20.157Z,46.48
2018-06-22T13:26:19.886Z,46.5
2018-06-22T13:27:20.145Z,45.83
2018-06-22T13:28:19.896Z,45.35
2018-06-22T13:29:20.159Z,45.08
2018-06-22T13:30:20.161Z,44.99
2018-06-22T13:31:20.149Z,45.47
2018-06-22T13:32:20.155Z,44.7
2018-06-22T13:33:19.901Z,44.41
2018-06-22T13:34:20.162Z,44.41
2018-06-22T13:35:19.904Z,44.6